Airfield :
LOGIN :

Register | Disclaimer

   EN    FR    IT 

 










Legend :    VFR   Marginal VFR   IFR   Intensive IFR   Very Intensive IFR
Visi :
Ceiling :
>= 8 km
>= 3000ft
5 to 8 km
1000 to 3000 ft
1500m to 5 km
500 to 1000 ft
800 to 1500m
200 to 500 ft
< 800m
< 200 ft
Symbols :   Thunderstorms  Fog  Heavy snow  Heavy precipitations  Wind > 20 kt
SIGMETs :     Misc.  Thunderstorms  Icing  Turbulence  Mountain Waves  Volcanic Ashes






- Airport Elevation : 240 ft
- IATA code : VLC


LEVC - Valencia Manises

CURRENT METAR :
  • 120500Z 25015KT CAVOK 10/02 Q1020 NOSIG

EXPIRED METARs :
  • 120430Z 26015KT CAVOK 10/02 Q1020 NOSIG
  • 120400Z 26012KT CAVOK 09/03 Q1020 NOSIG
  • 120330Z 26016KT CAVOK 10/02 Q1020 NOSIG
  • 120300Z 27016KT CAVOK 10/03 Q1021 NOSIG
  • 120230Z 27013KT CAVOK 10/02 Q1021 NOSIG

TAF TAF LEVC
Valid from the 12 at 00:00 until the 13 at 00:00 UTC


112300Z 1200/1224 27007KT 9999 FEW040 TX15/1213Z TN08/1206Z
BECMG 1210/1212 27013KT
PROB40
TEMPO 1210/1224 27018G30KT



MET'MAP, your aeronautical weather chart ! - Copyright ORBIFLY December 2007 - Disclaimer

ORBIFLY MET'MAP TEAM :

Programming & Development : Alexandra Zaïnal
Concept & original design : Baudouin d'Aumeries
Assistance for programming : Marc-Olivier Méhu
Technical & hardware support : Manuel Goepfert

Contact : metmap@orbifly.com




SOURCES & CREDITS :

   NOAA